Terminal Aerodrome Forecast
Issued by NWS

Home | Current Version | Previous Version | Text Only | Print | Product List | Glossary On
Versions: 1 2 3 4 5 6 7 8 9 10 11 12 13 14 15
000
FTUS43 KOAX 030520
TAFBFF
TAF
KBFF 030520Z 0306/0406 11007KT P6SM SCT120
     FM031600 12008KT P6SM SCT120 BKN200
     FM031900 14010KT P6SM VCTS SCT050CB BKN120
     FM032100 14010KT 6SM -TSRA BKN050CB BKN100
     FM040000 11005KT P6SM VCTS SCT050CB BKN100=

USA.gov is the U.S. government's official web portal to all federal, state and local government web resources and services.